createdAt,value
2022-10-16T00:01:24.884Z,100.00
2022-10-16T00:03:53.076Z,100.00
2022-10-16T00:06:22.815Z,99.88
2022-10-16T00:08:51.231Z,100.00
2022-10-16T00:11:30.973Z,100.00
2022-10-16T00:14:02.193Z,100.00
2022-10-16T00:16:30.463Z,100.00
2022-10-16T00:18:58.115Z,100.00
2022-10-16T00:21:28.514Z,100.00
2022-10-16T00:24:01.624Z,100.00
2022-10-16T00:26:30.687Z,100.00
2022-10-16T00:28:58.382Z,100.00
2022-10-16T00:31:26.004Z,100.00
2022-10-16T00:33:53.983Z,100.00
2022-10-16T00:36:22.725Z,100.00
2022-10-16T00:38:56.382Z,100.00
2022-10-16T00:41:26.038Z,100.00
2022-10-16T00:44:01.539Z,100.00
2022-10-16T00:46:41.075Z,100.00
2022-10-16T00:49:14.481Z,100.00
2022-10-16T00:51:56.247Z,100.00
2022-10-16T00:54:30.624Z,100.00
2022-10-16T00:57:02.195Z,100.00
2022-10-16T00:59:32.738Z,100.00
2022-10-16T01:02:01.094Z,100.00
2022-10-16T01:04:34.354Z,100.00
2022-10-16T01:07:07.929Z,100.00
2022-10-16T01:10:04.638Z,100.00
2022-10-16T01:13:08.124Z,100.00
2022-10-16T01:15:41.677Z,100.00
2022-10-16T01:18:20.036Z,100.00
2022-10-16T01:20:54.848Z,100.00
2022-10-16T01:23:44.531Z,100.00
2022-10-16T01:26:21.383Z,100.00
2022-10-16T01:28:58.617Z,100.00
2022-10-16T01:31:30.671Z,100.00
2022-10-16T01:34:06.955Z,100.00
2022-10-16T01:36:54.555Z,100.00
2022-10-16T01:39:25.868Z,100.00
2022-10-16T01:42:00.538Z,100.00
2022-10-16T01:44:32.778Z,100.00
2022-10-16T01:47:01.399Z,100.00
2022-10-16T01:49:33.961Z,100.00
2022-10-16T01:52:05.517Z,100.00
2022-10-16T01:54:35.849Z,100.00
2022-10-16T01:57:05.682Z,100.00
2022-10-16T01:59:37.622Z,100.00
2022-10-16T02:02:09.405Z,100.00
2022-10-16T02:04:43.653Z,100.00
2022-10-16T02:07:11.662Z,100.00
2022-10-16T02:09:39.187Z,100.00
2022-10-16T02:12:27.836Z,100.00
2022-10-16T02:14:55.507Z,100.00
2022-10-16T02:17:23.300Z,100.00
2022-10-16T02:19:53.884Z,99.91
2022-10-16T02:22:30.677Z,100.00
2022-10-16T02:25:07.834Z,99.68
2022-10-16T02:27:41.998Z,100.00
2022-10-16T02:30:16.023Z,100.00
2022-10-16T02:32:46.110Z,100.00
2022-10-16T02:35:14.006Z,100.00
2022-10-16T02:37:42.331Z,100.00
2022-10-16T02:40:09.880Z,100.00
2022-10-16T02:42:41.119Z,100.00
2022-10-16T02:45:12.645Z,100.00
2022-10-16T02:47:39.695Z,100.00
2022-10-16T02:50:07.344Z,99.07
2022-10-16T02:52:34.384Z,99.61
2022-10-16T02:55:01.736Z,100.00
2022-10-16T02:57:29.291Z,100.00
2022-10-16T02:59:56.931Z,100.00
2022-10-16T03:02:23.925Z,100.00
2022-10-16T03:04:51.260Z,100.00
2022-10-16T03:07:18.600Z,100.00
2022-10-16T03:09:45.623Z,99.90
2022-10-16T03:12:13.297Z,100.00
2022-10-16T03:14:41.373Z,100.00
2022-10-16T03:17:08.758Z,99.41
2022-10-16T03:22:21.635Z,98.95
2022-10-16T03:24:48.968Z,98.97
2022-10-16T03:27:16.177Z,98.72
2022-10-16T03:29:43.389Z,100.00
2022-10-16T03:32:10.543Z,99.99
2022-10-16T03:34:37.703Z,99.46
2022-10-16T03:37:05.270Z,99.47
2022-10-16T03:39:32.210Z,99.55
2022-10-16T03:41:59.340Z,100.00
2022-10-16T03:44:26.424Z,100.00
2022-10-16T03:46:53.802Z,99.76
2022-10-16T03:49:20.997Z,99.77
2022-10-16T03:51:48.001Z,99.19
2022-10-16T03:54:15.135Z,99.74
2022-10-16T03:56:42.208Z,98.78
2022-10-16T03:59:09.623Z,99.84
2022-10-16T04:01:36.681Z,99.23
2022-10-16T04:04:06.846Z,99.19
2022-10-16T04:06:33.917Z,99.33
2022-10-16T04:09:01.003Z,99.38
2022-10-16T04:11:28.621Z,99.64
2022-10-16T04:13:56.055Z,98.11
2022-10-16T04:16:23.295Z,98.60
2022-10-16T04:18:50.334Z,98.79
2022-10-16T04:21:17.409Z,99.20
2022-10-16T04:23:44.908Z,99.53
2022-10-16T04:26:12.331Z,99.28
2022-10-16T04:28:39.487Z,99.61
2022-10-16T04:31:07.853Z,99.52
2022-10-16T04:33:35.294Z,99.24
2022-10-16T04:36:03.798Z,98.83
2022-10-16T04:38:31.280Z,98.46
2022-10-16T04:40:58.392Z,99.75
2022-10-16T04:43:25.516Z,98.62
2022-10-16T04:45:52.999Z,98.93
2022-10-16T04:48:20.160Z,98.45
2022-10-16T04:50:51.664Z,99.08
2022-10-16T04:53:22.233Z,98.87
2022-10-16T04:55:49.323Z,98.93
2022-10-16T04:58:16.499Z,99.54
2022-10-16T05:00:43.577Z,98.97
2022-10-16T05:03:10.865Z,98.97
2022-10-16T05:05:38.394Z,99.47
2022-10-16T05:08:05.521Z,99.18
2022-10-16T05:10:32.686Z,98.61
2022-10-16T05:12:59.752Z,98.55
2022-10-16T05:15:27.355Z,99.74
2022-10-16T05:17:57.472Z,99.44
2022-10-16T05:20:24.751Z,99.96
2022-10-16T05:22:51.914Z,99.94
2022-10-16T05:25:19.882Z,100.00
2022-10-16T05:27:50.465Z,99.74
2022-10-16T05:30:18.537Z,100.00
2022-10-16T05:32:50.916Z,99.49
2022-10-16T05:35:19.140Z,100.00
2022-10-16T05:37:46.498Z,100.00
2022-10-16T05:40:14.305Z,99.74
2022-10-16T05:42:41.987Z,100.00
2022-10-16T05:45:11.685Z,100.00
2022-10-16T05:47:39.243Z,100.00
2022-10-16T05:50:07.375Z,100.00
2022-10-16T05:52:34.513Z,100.00
2022-10-16T05:55:01.718Z,100.00
2022-10-16T05:57:29.243Z,100.00
2022-10-16T05:59:56.459Z,100.00
2022-10-16T06:02:23.628Z,100.00
2022-10-16T06:04:52.953Z,100.00
2022-10-16T06:07:22.592Z,100.00
2022-10-16T06:09:54.087Z,100.00
2022-10-16T06:12:21.709Z,100.00
2022-10-16T06:14:49.872Z,100.00
2022-10-16T06:17:17.193Z,100.00
2022-10-16T06:19:44.196Z,100.00
2022-10-16T06:22:11.456Z,100.00
2022-10-16T06:24:38.575Z,100.00
2022-10-16T06:27:06.382Z,100.00
2022-10-16T06:29:33.677Z,100.00
2022-10-16T06:32:01.046Z,100.00
2022-10-16T06:34:27.984Z,100.00
2022-10-16T06:36:54.965Z,100.00
2022-10-16T06:39:22.250Z,100.00
2022-10-16T06:41:50.267Z,99.05
2022-10-16T06:44:17.376Z,97.38
2022-10-16T06:46:44.678Z,96.80
2022-10-16T06:49:11.940Z,95.37
2022-10-16T06:51:43.434Z,94.23
2022-10-16T06:54:11.313Z,94.32
2022-10-16T06:56:39.143Z,92.81
2022-10-16T06:59:06.526Z,92.46
2022-10-16T07:01:34.694Z,91.15
2022-10-16T07:04:03.217Z,89.48
2022-10-16T07:06:34.155Z,90.37
2022-10-16T07:09:03.380Z,88.51
2022-10-16T07:11:30.404Z,86.80
2022-10-16T07:13:57.373Z,85.71
2022-10-16T07:16:30.027Z,84.11
2022-10-16T07:19:01.593Z,84.59
2022-10-16T07:21:32.151Z,83.41
2022-10-16T07:24:02.637Z,81.70
2022-10-16T07:26:32.549Z,81.66
2022-10-16T07:29:00.017Z,81.03
2022-10-16T07:31:28.066Z,79.69
2022-10-16T07:33:59.224Z,79.83
2022-10-16T07:36:26.434Z,80.04
2022-10-16T07:38:57.211Z,78.68
2022-10-16T07:41:28.297Z,78.58
2022-10-16T07:43:56.251Z,80.21
2022-10-16T07:46:24.521Z,77.74
2022-10-16T07:48:52.200Z,77.28
2022-10-16T07:51:21.630Z,78.04
2022-10-16T07:53:48.925Z,77.30
2022-10-16T07:56:17.479Z,76.54
2022-10-16T07:58:45.425Z,76.19
2022-10-16T08:01:17.368Z,75.31
2022-10-16T08:03:49.050Z,73.80
2022-10-16T08:06:16.740Z,70.39
2022-10-16T08:08:44.106Z,70.96
2022-10-16T08:11:11.826Z,70.34
2022-10-16T08:13:38.951Z,68.17
2022-10-16T08:16:08.994Z,68.83
2022-10-16T08:18:38.302Z,68.46
2022-10-16T08:21:06.687Z,65.57
2022-10-16T08:23:34.760Z,65.07
2022-10-16T08:26:09.329Z,62.70
2022-10-16T08:28:37.265Z,61.08
2022-10-16T08:31:09.320Z,61.27
2022-10-16T08:33:36.849Z,60.64
2022-10-16T08:36:06.127Z,57.58
2022-10-16T08:38:34.044Z,56.09
2022-10-16T08:41:17.179Z,56.00
2022-10-16T08:44:18.248Z,58.17
2022-10-16T08:47:12.990Z,56.99
2022-10-16T08:49:43.435Z,58.00
2022-10-16T08:52:15.327Z,56.46
2022-10-16T08:54:51.288Z,57.04
2022-10-16T08:57:24.679Z,56.48
2022-10-16T08:59:52.841Z,57.27
2022-10-16T09:02:32.010Z,56.33
2022-10-16T09:05:23.952Z,54.72
2022-10-16T09:08:07.815Z,55.25
2022-10-16T09:10:55.898Z,53.52
2022-10-16T09:13:43.459Z,53.13
2022-10-16T09:16:16.445Z,53.08
2022-10-16T09:19:05.465Z,52.88
2022-10-16T09:21:37.485Z,54.01
2022-10-16T09:24:17.696Z,54.10
2022-10-16T09:26:45.630Z,52.59
2022-10-16T09:29:14.703Z,54.98
2022-10-16T09:31:42.900Z,54.20
2022-10-16T09:34:37.351Z,53.71
2022-10-16T09:37:14.283Z,52.70
2022-10-16T09:39:50.165Z,53.83
2022-10-16T09:42:32.667Z,52.18
2022-10-16T09:45:00.120Z,53.46
2022-10-16T09:47:29.663Z,53.65
2022-10-16T09:50:07.401Z,53.36
2022-10-16T09:52:34.824Z,52.72
2022-10-16T09:55:13.966Z,52.68
2022-10-16T09:57:56.650Z,51.44
2022-10-16T10:00:25.523Z,51.05
2022-10-16T10:05:28.660Z,52.95
2022-10-16T10:08:01.212Z,49.72
2022-10-16T10:10:30.819Z,50.77
2022-10-16T10:12:58.642Z,49.52
2022-10-16T10:15:26.222Z,51.38
2022-10-16T10:17:54.207Z,50.81
2022-10-16T10:20:26.607Z,49.41
2022-10-16T10:22:53.912Z,49.59
2022-10-16T10:25:52.605Z,51.46
2022-10-16T10:28:30.967Z,50.21
2022-10-16T10:31:02.349Z,50.61
2022-10-16T10:33:44.956Z,50.84
2022-10-16T10:36:26.984Z,51.14
2022-10-16T10:39:04.308Z,52.07
2022-10-16T10:41:43.569Z,51.86
2022-10-16T10:44:38.488Z,51.25
2022-10-16T10:47:34.536Z,50.74
2022-10-16T10:50:27.753Z,48.80
2022-10-16T10:53:05.427Z,47.81
2022-10-16T10:55:40.859Z,48.83
2022-10-16T10:58:16.329Z,50.12
2022-10-16T11:00:56.257Z,50.18
2022-10-16T11:03:35.390Z,49.40
2022-10-16T11:06:11.685Z,47.90
2022-10-16T11:09:06.233Z,49.12
2022-10-16T11:11:53.203Z,49.88
2022-10-16T11:14:35.986Z,49.16
2022-10-16T11:17:14.347Z,48.25
2022-10-16T11:19:52.726Z,47.69
2022-10-16T11:22:27.815Z,48.09
2022-10-16T11:25:01.909Z,49.35
2022-10-16T11:27:43.775Z,49.96
2022-10-16T11:30:23.049Z,50.40
2022-10-16T11:33:06.287Z,50.75
2022-10-16T11:36:01.511Z,49.87
2022-10-16T11:38:55.196Z,50.80
2022-10-16T11:42:01.020Z,50.17
2022-10-16T11:44:37.548Z,51.12
2022-10-16T11:50:33.138Z,48.49
2022-10-16T11:53:15.283Z,47.91
2022-10-16T11:55:46.877Z,47.80
2022-10-16T11:58:29.317Z,48.87
2022-10-16T12:01:12.006Z,46.14
2022-10-16T12:04:00.806Z,47.45
2022-10-16T12:06:37.383Z,47.96
2022-10-16T12:09:05.246Z,47.05
2022-10-16T12:11:34.068Z,47.52
2022-10-16T12:14:13.457Z,48.70
2022-10-16T12:16:52.999Z,48.03
2022-10-16T12:19:20.923Z,48.39
2022-10-16T12:21:49.465Z,49.39
2022-10-16T12:24:39.832Z,49.27
2022-10-16T12:27:20.990Z,49.54
2022-10-16T12:29:48.494Z,48.32
2022-10-16T12:32:46.272Z,48.68
2022-10-16T12:35:29.716Z,48.08
2022-10-16T12:38:07.782Z,47.68
2022-10-16T12:40:38.291Z,49.21
2022-10-16T12:43:29.902Z,48.24
2022-10-16T12:46:22.150Z,47.56
2022-10-16T12:49:06.128Z,48.38
2022-10-16T12:51:33.719Z,48.55
2022-10-16T12:54:14.280Z,48.89
2022-10-16T12:57:19.077Z,47.52
2022-10-16T13:00:09.175Z,47.96
2022-10-16T13:03:13.445Z,49.07
2022-10-16T13:06:17.986Z,47.67
2022-10-16T13:09:07.291Z,49.12
2022-10-16T13:12:16.344Z,47.10
2022-10-16T13:15:22.202Z,47.62
2022-10-16T13:17:51.779Z,48.33
2022-10-16T13:20:23.772Z,48.28
2022-10-16T13:23:18.551Z,48.60
2022-10-16T13:26:10.069Z,48.34
2022-10-16T13:28:40.013Z,47.69
2022-10-16T13:31:22.444Z,47.99
2022-10-16T13:33:55.930Z,47.61
2022-10-16T13:36:31.025Z,48.42
2022-10-16T13:39:23.770Z,47.61
2022-10-16T13:42:16.143Z,48.77
2022-10-16T13:44:54.240Z,49.10
2022-10-16T13:47:25.128Z,49.24
2022-10-16T13:50:03.125Z,49.00
2022-10-16T13:52:30.329Z,48.21
2022-10-16T13:55:00.937Z,50.21
2022-10-16T13:57:29.359Z,49.06
2022-10-16T13:59:56.494Z,49.69
2022-10-16T14:02:39.247Z,52.17
2022-10-16T14:05:11.599Z,49.65
2022-10-16T14:07:39.487Z,50.10
2022-10-16T14:10:21.667Z,51.56
2022-10-16T14:13:06.419Z,52.72
2022-10-16T14:15:35.925Z,51.39
2022-10-16T14:18:03.927Z,50.85
2022-10-16T14:20:35.917Z,50.11
2022-10-16T14:23:06.311Z,50.16
2022-10-16T14:25:35.385Z,50.52
2022-10-16T14:28:21.036Z,50.60
2022-10-16T14:31:03.320Z,50.38
2022-10-16T14:33:35.860Z,49.64
2022-10-16T14:36:12.094Z,49.53
2022-10-16T14:38:41.369Z,48.97
2022-10-16T14:41:09.150Z,49.46
2022-10-16T14:43:42.746Z,51.13
2022-10-16T14:49:01.907Z,50.52
2022-10-16T14:51:28.987Z,51.39
2022-10-16T14:53:59.970Z,52.13
2022-10-16T14:56:33.356Z,54.28
2022-10-16T14:59:02.224Z,55.64
2022-10-16T15:01:29.279Z,54.98
2022-10-16T15:03:56.921Z,56.17
2022-10-16T15:06:23.839Z,57.54
2022-10-16T15:08:50.878Z,58.81
2022-10-16T15:11:20.440Z,59.38
2022-10-16T15:13:48.332Z,61.42
2022-10-16T15:16:17.881Z,62.96
2022-10-16T15:18:45.594Z,64.01
2022-10-16T15:21:26.112Z,65.78
2022-10-16T15:23:53.555Z,66.05
2022-10-16T15:26:20.916Z,66.99
2022-10-16T15:28:48.156Z,67.73
2022-10-16T15:31:15.414Z,67.78
2022-10-16T15:33:42.746Z,68.63
2022-10-16T15:36:09.925Z,69.19
2022-10-16T15:38:39.712Z,69.55
2022-10-16T15:41:07.439Z,70.55
2022-10-16T15:43:34.883Z,70.76
2022-10-16T15:46:11.084Z,70.89
2022-10-16T15:48:38.688Z,72.53
2022-10-16T15:51:07.975Z,72.98
2022-10-16T15:53:38.494Z,73.34
2022-10-16T15:56:07.082Z,73.05
2022-10-16T15:58:34.546Z,73.83
2022-10-16T16:01:03.205Z,75.11
2022-10-16T16:05:59.596Z,74.92
2022-10-16T16:08:26.543Z,75.78
2022-10-16T16:11:08.846Z,76.41
2022-10-16T16:13:38.674Z,77.47
2022-10-16T16:16:15.046Z,78.38
2022-10-16T16:18:43.239Z,78.86
2022-10-16T16:21:13.486Z,79.39
2022-10-16T16:23:40.856Z,79.83
2022-10-16T16:26:33.657Z,79.72
2022-10-16T16:29:01.034Z,80.66
2022-10-16T16:31:30.072Z,81.49
2022-10-16T16:33:58.258Z,80.85
2022-10-16T16:36:26.429Z,80.91
2022-10-16T16:38:53.732Z,81.47
2022-10-16T16:41:24.880Z,81.72
2022-10-16T16:43:52.587Z,81.74
2022-10-16T16:46:20.539Z,82.57
2022-10-16T16:48:47.714Z,82.77
2022-10-16T16:51:19.338Z,83.38
2022-10-16T16:53:51.437Z,83.76
2022-10-16T16:56:19.936Z,84.32
2022-10-16T16:58:48.257Z,84.96
2022-10-16T17:01:19.822Z,85.42
2022-10-16T17:03:51.305Z,85.36
2022-10-16T17:06:21.609Z,85.77
2022-10-16T17:08:49.920Z,86.04
2022-10-16T17:11:23.861Z,86.64
2022-10-16T17:13:56.585Z,86.52
2022-10-16T17:16:31.001Z,87.21
2022-10-16T17:19:01.762Z,87.11
2022-10-16T17:21:30.874Z,87.37
2022-10-16T17:23:58.147Z,87.54
2022-10-16T17:26:25.264Z,87.55
2022-10-16T17:28:54.611Z,88.02
2022-10-16T17:31:25.242Z,88.30
2022-10-16T17:33:52.674Z,88.49
2022-10-16T17:36:21.188Z,88.45
2022-10-16T17:38:48.987Z,88.34
2022-10-16T17:41:22.350Z,88.90
2022-10-16T17:43:50.514Z,88.83
2022-10-16T17:46:20.918Z,88.90
2022-10-16T17:48:50.234Z,89.80
2022-10-16T17:51:23.805Z,89.55
2022-10-16T17:53:53.153Z,89.29
2022-10-16T17:56:20.683Z,89.94
2022-10-16T17:58:52.832Z,89.50
2022-10-16T18:01:25.926Z,90.75
2022-10-16T18:04:05.151Z,90.26
2022-10-16T18:06:32.774Z,90.65
2022-10-16T18:09:00.770Z,91.15
2022-10-16T18:11:27.771Z,91.90
2022-10-16T18:13:57.260Z,91.71
2022-10-16T18:16:26.238Z,92.18
2022-10-16T18:18:54.688Z,91.91
2022-10-16T18:21:22.380Z,92.28
2022-10-16T18:23:51.895Z,92.07
2022-10-16T18:26:21.391Z,92.17
2022-10-16T18:28:49.081Z,92.64
2022-10-16T18:31:17.915Z,91.83
2022-10-16T18:33:50.842Z,92.44
2022-10-16T18:36:24.014Z,92.83
2022-10-16T18:38:52.160Z,92.63
2022-10-16T18:41:19.433Z,92.84
2022-10-16T18:43:46.904Z,92.05
2022-10-16T18:46:20.693Z,93.48
2022-10-16T18:48:48.631Z,93.31
2022-10-16T18:51:22.622Z,93.36
2022-10-16T18:53:52.501Z,92.93
2022-10-16T18:56:22.357Z,92.02
2022-10-16T18:58:51.277Z,93.93
2022-10-16T19:01:22.021Z,93.66
2022-10-16T19:03:53.787Z,94.82
2022-10-16T19:06:21.316Z,94.16
2022-10-16T19:08:48.472Z,94.06
2022-10-16T19:11:18.664Z,94.07
2022-10-16T19:13:48.324Z,94.17
2022-10-16T19:16:21.243Z,94.29
2022-10-16T19:18:53.881Z,94.88
2022-10-16T19:21:23.379Z,94.18
2022-10-16T19:23:58.239Z,95.30
2022-10-16T19:26:26.633Z,94.90
2022-10-16T19:28:59.005Z,94.84
2022-10-16T19:31:27.786Z,95.23
2022-10-16T19:33:57.349Z,94.09
2022-10-16T19:36:28.134Z,94.74
2022-10-16T19:39:09.513Z,94.93
2022-10-16T19:41:38.936Z,94.42
2022-10-16T20:06:59.256Z,96.38
2022-10-16T20:13:26.879Z,95.84
2022-10-16T20:20:51.985Z,97.61
2022-10-16T20:26:06.420Z,98.49
2022-10-16T20:36:34.941Z,98.08
2022-10-16T20:39:07.185Z,97.72
2022-10-16T20:42:00.302Z,96.23
2022-10-16T20:51:37.597Z,97.38
2022-10-16T20:54:30.697Z,96.90
2022-10-16T20:57:18.839Z,97.14
2022-10-16T20:59:51.922Z,96.44
2022-10-16T21:06:47.197Z,95.48
2022-10-16T21:09:34.139Z,95.33
2022-10-16T21:23:21.264Z,96.93
2022-10-16T21:26:35.861Z,96.88
2022-10-16T21:51:58.801Z,94.69
2022-10-16T21:54:26.603Z,94.87
2022-10-16T21:56:59.566Z,95.71
2022-10-16T21:59:41.409Z,94.82
2022-10-16T22:02:11.491Z,95.29
2022-10-16T22:04:44.736Z,94.95
2022-10-16T22:07:12.354Z,94.48
2022-10-16T22:09:40.644Z,95.32
2022-10-16T22:12:10.968Z,95.39
2022-10-16T22:14:40.572Z,96.31
2022-10-16T22:17:08.356Z,96.43
2022-10-16T22:19:36.162Z,95.60
2022-10-16T22:22:06.934Z,96.76
2022-10-16T22:24:37.914Z,95.89
2022-10-16T22:27:05.468Z,96.14
2022-10-16T22:29:34.366Z,96.82
2022-10-16T22:32:06.393Z,96.00
2022-10-16T22:34:37.555Z,96.26
2022-10-16T22:37:04.955Z,95.96
2022-10-16T22:39:41.138Z,96.34
2022-10-16T22:42:10.098Z,95.29
2022-10-16T22:44:38.140Z,95.75
2022-10-16T22:47:05.413Z,95.76
2022-10-16T22:49:33.604Z,95.54
2022-10-16T22:52:01.545Z,96.07
2022-10-16T22:54:32.125Z,96.96
2022-10-16T22:56:59.688Z,96.33
2022-10-16T22:59:30.298Z,96.97
2022-10-16T23:01:57.811Z,96.11
2022-10-16T23:04:25.667Z,95.63
2022-10-16T23:06:53.208Z,96.12
2022-10-16T23:09:23.056Z,96.23
2022-10-16T23:11:50.981Z,95.34
2022-10-16T23:14:22.999Z,94.01
2022-10-16T23:16:51.080Z,94.57
2022-10-16T23:19:18.210Z,95.62
2022-10-16T23:21:49.343Z,95.68
2022-10-16T23:24:17.151Z,95.78
2022-10-16T23:26:44.413Z,95.61
2022-10-16T23:29:12.144Z,96.01
2022-10-16T23:31:43.074Z,95.22
2022-10-16T23:34:12.547Z,95.86
2022-10-16T23:36:45.316Z,96.31
2022-10-16T23:39:12.889Z,94.87
2022-10-16T23:41:43.372Z,94.79
2022-10-16T23:44:13.900Z,94.59
2022-10-16T23:46:42.136Z,94.87
2022-10-16T23:49:10.260Z,95.95
2022-10-16T23:51:37.730Z,94.61
2022-10-16T23:54:05.303Z,94.65
2022-10-16T23:56:32.903Z,95.59
2022-10-16T23:59:03.586Z,96.06
